Terminal Aerodrome Forecast
Issued by NWS

Home | Current Version | Previous Version | Text Only | Print | Product List | Glossary On
Versions: 1 2 3 4 5 6 7 8 9 10 11 12 13 14 15
000
FTUS43 KMPX 282300 RRA
TAFRWF
TAF
KRWF 282341Z 2900/2924 10006KT 3SM -SHRA BR OVC005
     FM290200 15006KT 3SM -DZ BR OVC003
     FM291600 25005KT 5SM BR BKN007 OVC025
     FM291900 26005KT P6SM SCT025 OVC120=

USA.gov is the U.S. government's official web portal to all federal, state and local government web resources and services.